sensor_id;sensor_type;location;lat;lon;timestamp;P1;durP1;ratioP1;P2;durP2;ratioP2
20437;SDS011;17436;50.338;8.810;2022-08-03T00:00:17;7.77;;;2.10;;
20437;SDS011;17436;50.338;8.810;2022-08-03T00:02:45;5.57;;;2.37;;
20437;SDS011;17436;50.338;8.810;2022-08-03T00:05:13;2.13;;;1.93;;
20437;SDS011;17436;50.338;8.810;2022-08-03T00:07:39;5.63;;;2.03;;
20437;SDS011;17436;50.338;8.810;2022-08-03T00:10:06;3.13;;;2.23;;
20437;SDS011;17436;50.338;8.810;2022-08-03T00:12:33;3.93;;;1.80;;
20437;SDS011;17436;50.338;8.810;2022-08-03T00:15:01;3.40;;;2.03;;
20437;SDS011;17436;50.338;8.810;2022-08-03T00:17:28;5.30;;;2.17;;
20437;SDS011;17436;50.338;8.810;2022-08-03T00:19:54;3.50;;;2.23;;
20437;SDS011;17436;50.338;8.810;2022-08-03T00:22:22;4.73;;;1.83;;
20437;SDS011;17436;50.338;8.810;2022-08-03T00:24:49;4.83;;;1.93;;
20437;SDS011;17436;50.338;8.810;2022-08-03T00:27:16;4.00;;;2.00;;
20437;SDS011;17436;50.338;8.810;2022-08-03T00:29:48;5.37;;;1.93;;
20437;SDS011;17436;50.338;8.810;2022-08-03T00:32:14;5.70;;;2.00;;
20437;SDS011;17436;50.338;8.810;2022-08-03T00:34:41;5.73;;;2.10;;
20437;SDS011;17436;50.338;8.810;2022-08-03T00:37:08;4.97;;;2.37;;
20437;SDS011;17436;50.338;8.810;2022-08-03T00:39:36;2.40;;;1.90;;
20437;SDS011;17436;50.338;8.810;2022-08-03T00:42:03;2.70;;;2.07;;
20437;SDS011;17436;50.338;8.810;2022-08-03T00:44:30;4.70;;;1.80;;
20437;SDS011;17436;50.338;8.810;2022-08-03T00:46:57;4.43;;;2.10;;
20437;SDS011;17436;50.338;8.810;2022-08-03T00:49:24;3.37;;;2.30;;
20437;SDS011;17436;50.338;8.810;2022-08-03T00:51:51;4.37;;;2.20;;
20437;SDS011;17436;50.338;8.810;2022-08-03T00:54:17;3.67;;;2.10;;
20437;SDS011;17436;50.338;8.810;2022-08-03T00:56:46;3.73;;;2.20;;
20437;SDS011;17436;50.338;8.810;2022-08-03T00:59:15;2.40;;;2.10;;
20437;SDS011;17436;50.338;8.810;2022-08-03T01:01:44;3.57;;;2.20;;
20437;SDS011;17436;50.338;8.810;2022-08-03T01:04:11;5.30;;;2.33;;
20437;SDS011;17436;50.338;8.810;2022-08-03T01:06:40;3.17;;;2.10;;
20437;SDS011;17436;50.338;8.810;2022-08-03T01:09:17;4.77;;;2.40;;
20437;SDS011;17436;50.338;8.810;2022-08-03T01:11:53;2.47;;;1.97;;
20437;SDS011;17436;50.338;8.810;2022-08-03T01:14:29;2.90;;;2.20;;
20437;SDS011;17436;50.338;8.810;2022-08-03T01:17:01;3.73;;;2.20;;
20437;SDS011;17436;50.338;8.810;2022-08-03T01:19:40;5.20;;;2.20;;
20437;SDS011;17436;50.338;8.810;2022-08-03T01:22:23;3.57;;;2.20;;
20437;SDS011;17436;50.338;8.810;2022-08-03T01:25:16;5.63;;;2.37;;
20437;SDS011;17436;50.338;8.810;2022-08-03T01:28:06;4.07;;;2.13;;
20437;SDS011;17436;50.338;8.810;2022-08-03T01:30:46;4.53;;;2.30;;
20437;SDS011;17436;50.338;8.810;2022-08-03T01:33:16;7.73;;;2.10;;
20437;SDS011;17436;50.338;8.810;2022-08-03T01:35:49;2.70;;;1.90;;
20437;SDS011;17436;50.338;8.810;2022-08-03T01:38:25;4.53;;;2.23;;
20437;SDS011;17436;50.338;8.810;2022-08-03T01:40:54;3.87;;;2.10;;
20437;SDS011;17436;50.338;8.810;2022-08-03T01:43:24;3.10;;;2.23;;
20437;SDS011;17436;50.338;8.810;2022-08-03T01:45:54;2.63;;;2.00;;
20437;SDS011;17436;50.338;8.810;2022-08-03T01:48:22;5.03;;;2.20;;
20437;SDS011;17436;50.338;8.810;2022-08-03T01:50:50;4.80;;;2.40;;
20437;SDS011;17436;50.338;8.810;2022-08-03T01:53:21;3.83;;;2.20;;
20437;SDS011;17436;50.338;8.810;2022-08-03T01:55:51;4.10;;;2.40;;
20437;SDS011;17436;50.338;8.810;2022-08-03T01:58:20;4.87;;;2.40;;
20437;SDS011;17436;50.338;8.810;2022-08-03T02:00:49;3.83;;;2.20;;
20437;SDS011;17436;50.338;8.810;2022-08-03T02:03:18;3.23;;;2.17;;
20437;SDS011;17436;50.338;8.810;2022-08-03T02:05:47;4.67;;;2.17;;
20437;SDS011;17436;50.338;8.810;2022-08-03T02:08:15;3.00;;;2.30;;
20437;SDS011;17436;50.338;8.810;2022-08-03T02:10:44;3.20;;;2.50;;
20437;SDS011;17436;50.338;8.810;2022-08-03T02:13:11;3.67;;;2.60;;
20437;SDS011;17436;50.338;8.810;2022-08-03T02:15:41;5.10;;;2.50;;
20437;SDS011;17436;50.338;8.810;2022-08-03T02:18:09;4.07;;;2.70;;
20437;SDS011;17436;50.338;8.810;2022-08-03T02:20:40;4.67;;;2.77;;
20437;SDS011;17436;50.338;8.810;2022-08-03T02:23:08;4.90;;;2.63;;
20437;SDS011;17436;50.338;8.810;2022-08-03T02:25:37;7.57;;;2.70;;
20437;SDS011;17436;50.338;8.810;2022-08-03T02:28:10;4.67;;;2.90;;
20437;SDS011;17436;50.338;8.810;2022-08-03T02:30:41;5.67;;;2.90;;
20437;SDS011;17436;50.338;8.810;2022-08-03T02:33:12;4.17;;;2.60;;
20437;SDS011;17436;50.338;8.810;2022-08-03T02:35:46;4.47;;;2.57;;
20437;SDS011;17436;50.338;8.810;2022-08-03T02:38:17;4.57;;;2.60;;
20437;SDS011;17436;50.338;8.810;2022-08-03T02:40:46;4.30;;;2.33;;
20437;SDS011;17436;50.338;8.810;2022-08-03T02:43:17;7.13;;;2.70;;
20437;SDS011;17436;50.338;8.810;2022-08-03T02:45:48;2.70;;;2.50;;
20437;SDS011;17436;50.338;8.810;2022-08-03T02:48:19;5.73;;;2.60;;
20437;SDS011;17436;50.338;8.810;2022-08-03T02:50:50;3.10;;;2.43;;
20437;SDS011;17436;50.338;8.810;2022-08-03T02:53:20;5.90;;;2.87;;
20437;SDS011;17436;50.338;8.810;2022-08-03T02:55:49;4.70;;;2.77;;
20437;SDS011;17436;50.338;8.810;2022-08-03T02:58:18;3.93;;;2.80;;
20437;SDS011;17436;50.338;8.810;2022-08-03T03:00:46;5.80;;;3.07;;
20437;SDS011;17436;50.338;8.810;2022-08-03T03:03:13;3.23;;;2.87;;
20437;SDS011;17436;50.338;8.810;2022-08-03T03:05:40;12.47;;;3.00;;
20437;SDS011;17436;50.338;8.810;2022-08-03T03:08:09;3.57;;;2.53;;
20437;SDS011;17436;50.338;8.810;2022-08-03T03:10:38;6.50;;;2.90;;
20437;SDS011;17436;50.338;8.810;2022-08-03T03:13:06;6.33;;;2.67;;
20437;SDS011;17436;50.338;8.810;2022-08-03T03:15:34;3.57;;;3.20;;
20437;SDS011;17436;50.338;8.810;2022-08-03T03:18:03;4.77;;;2.70;;
20437;SDS011;17436;50.338;8.810;2022-08-03T03:20:33;3.90;;;2.70;;
20437;SDS011;17436;50.338;8.810;2022-08-03T03:23:02;3.60;;;2.80;;
20437;SDS011;17436;50.338;8.810;2022-08-03T03:25:31;3.63;;;3.10;;
20437;SDS011;17436;50.338;8.810;2022-08-03T03:27:58;3.83;;;3.40;;
20437;SDS011;17436;50.338;8.810;2022-08-03T03:30:26;4.63;;;3.20;;
20437;SDS011;17436;50.338;8.810;2022-08-03T03:32:56;5.03;;;3.40;;
20437;SDS011;17436;50.338;8.810;2022-08-03T03:35:24;7.93;;;4.93;;
20437;SDS011;17436;50.338;8.810;2022-08-03T03:37:52;4.37;;;3.67;;
20437;SDS011;17436;50.338;8.810;2022-08-03T03:40:18;4.60;;;3.67;;
20437;SDS011;17436;50.338;8.810;2022-08-03T03:42:47;5.40;;;3.80;;
20437;SDS011;17436;50.338;8.810;2022-08-03T03:45:15;5.27;;;4.30;;
20437;SDS011;17436;50.338;8.810;2022-08-03T03:47:46;7.27;;;4.57;;
20437;SDS011;17436;50.338;8.810;2022-08-03T03:50:13;8.80;;;4.23;;
20437;SDS011;17436;50.338;8.810;2022-08-03T03:52:42;5.97;;;4.23;;
20437;SDS011;17436;50.338;8.810;2022-08-03T03:55:09;5.97;;;3.97;;
20437;SDS011;17436;50.338;8.810;2022-08-03T03:57:42;5.73;;;3.87;;
20437;SDS011;17436;50.338;8.810;2022-08-03T04:00:11;5.73;;;4.00;;
20437;SDS011;17436;50.338;8.810;2022-08-03T04:02:39;4.57;;;3.80;;
20437;SDS011;17436;50.338;8.810;2022-08-03T04:05:06;6.50;;;3.47;;
20437;SDS011;17436;50.338;8.810;2022-08-03T04:07:54;6.93;;;3.33;;
20437;SDS011;17436;50.338;8.810;2022-08-03T04:10:40;6.13;;;3.70;;
20437;SDS011;17436;50.338;8.810;2022-08-03T04:13:28;5.23;;;3.40;;
20437;SDS011;17436;50.338;8.810;2022-08-03T04:15:58;4.70;;;3.73;;
20437;SDS011;17436;50.338;8.810;2022-08-03T04:18:27;6.37;;;3.77;;
20437;SDS011;17436;50.338;8.810;2022-08-03T04:20:56;6.23;;;5.63;;
20437;SDS011;17436;50.338;8.810;2022-08-03T04:23:27;5.50;;;3.90;;
20437;SDS011;17436;50.338;8.810;2022-08-03T04:25:58;4.13;;;3.27;;
20437;SDS011;17436;50.338;8.810;2022-08-03T04:28:26;4.73;;;3.37;;
20437;SDS011;17436;50.338;8.810;2022-08-03T04:30:54;6.27;;;3.40;;
20437;SDS011;17436;50.338;8.810;2022-08-03T04:33:24;5.07;;;3.63;;
20437;SDS011;17436;50.338;8.810;2022-08-03T04:35:53;5.77;;;4.03;;
20437;SDS011;17436;50.338;8.810;2022-08-03T04:38:23;4.80;;;3.37;;
20437;SDS011;17436;50.338;8.810;2022-08-03T04:40:50;6.60;;;3.40;;
20437;SDS011;17436;50.338;8.810;2022-08-03T04:43:19;4.83;;;3.30;;
20437;SDS011;17436;50.338;8.810;2022-08-03T04:45:49;7.83;;;3.50;;
20437;SDS011;17436;50.338;8.810;2022-08-03T04:48:17;5.50;;;3.33;;
20437;SDS011;17436;50.338;8.810;2022-08-03T04:50:47;4.93;;;3.10;;
20437;SDS011;17436;50.338;8.810;2022-08-03T04:53:15;3.50;;;2.80;;
20437;SDS011;17436;50.338;8.810;2022-08-03T04:55:42;4.60;;;2.90;;
20437;SDS011;17436;50.338;8.810;2022-08-03T04:58:10;7.57;;;3.57;;
20437;SDS011;17436;50.338;8.810;2022-08-03T05:00:36;7.13;;;4.10;;
20437;SDS011;17436;50.338;8.810;2022-08-03T05:03:03;5.90;;;3.73;;
20437;SDS011;17436;50.338;8.810;2022-08-03T05:05:30;6.77;;;3.97;;
20437;SDS011;17436;50.338;8.810;2022-08-03T05:07:58;9.50;;;4.07;;
20437;SDS011;17436;50.338;8.810;2022-08-03T05:10:24;5.07;;;3.67;;
20437;SDS011;17436;50.338;8.810;2022-08-03T05:12:51;6.37;;;4.07;;
20437;SDS011;17436;50.338;8.810;2022-08-03T05:15:18;4.27;;;3.53;;
20437;SDS011;17436;50.338;8.810;2022-08-03T05:17:46;6.53;;;4.00;;
20437;SDS011;17436;50.338;8.810;2022-08-03T05:20:13;6.13;;;3.40;;
20437;SDS011;17436;50.338;8.810;2022-08-03T05:22:39;3.77;;;3.23;;
20437;SDS011;17436;50.338;8.810;2022-08-03T05:25:08;6.60;;;3.33;;
20437;SDS011;17436;50.338;8.810;2022-08-03T05:27:35;3.67;;;3.10;;
20437;SDS011;17436;50.338;8.810;2022-08-03T05:30:02;7.80;;;3.13;;
20437;SDS011;17436;50.338;8.810;2022-08-03T05:32:29;5.90;;;3.50;;
20437;SDS011;17436;50.338;8.810;2022-08-03T05:34:57;4.50;;;3.17;;
20437;SDS011;17436;50.338;8.810;2022-08-03T05:37:24;5.20;;;3.07;;
20437;SDS011;17436;50.338;8.810;2022-08-03T05:39:52;4.13;;;2.93;;
20437;SDS011;17436;50.338;8.810;2022-08-03T05:42:20;5.67;;;3.17;;
20437;SDS011;17436;50.338;8.810;2022-08-03T05:44:47;3.90;;;2.87;;
20437;SDS011;17436;50.338;8.810;2022-08-03T05:47:14;6.07;;;3.00;;
20437;SDS011;17436;50.338;8.810;2022-08-03T05:49:40;4.47;;;2.85;;
20437;SDS011;17436;50.338;8.810;2022-08-03T05:52:07;6.97;;;3.10;;
20437;SDS011;17436;50.338;8.810;2022-08-03T05:54:34;6.43;;;3.13;;
20437;SDS011;17436;50.338;8.810;2022-08-03T05:57:01;7.00;;;3.03;;
20437;SDS011;17436;50.338;8.810;2022-08-03T05:59:29;4.37;;;3.10;;
20437;SDS011;17436;50.338;8.810;2022-08-03T06:01:55;4.80;;;3.50;;
20437;SDS011;17436;50.338;8.810;2022-08-03T06:04:22;6.40;;;3.30;;
20437;SDS011;17436;50.338;8.810;2022-08-03T06:06:49;6.97;;;3.43;;
20437;SDS011;17436;50.338;8.810;2022-08-03T06:09:16;7.70;;;3.37;;
20437;SDS011;17436;50.338;8.810;2022-08-03T06:11:44;7.90;;;3.43;;
20437;SDS011;17436;50.338;8.810;2022-08-03T06:14:11;5.10;;;3.07;;
20437;SDS011;17436;50.338;8.810;2022-08-03T06:16:39;5.07;;;2.73;;
20437;SDS011;17436;50.338;8.810;2022-08-03T06:19:06;8.33;;;3.13;;
20437;SDS011;17436;50.338;8.810;2022-08-03T06:21:33;5.40;;;3.23;;
20437;SDS011;17436;50.338;8.810;2022-08-03T06:23:59;7.30;;;3.07;;
20437;SDS011;17436;50.338;8.810;2022-08-03T06:26:26;9.43;;;3.17;;
20437;SDS011;17436;50.338;8.810;2022-08-03T06:28:53;5.73;;;3.43;;
20437;SDS011;17436;50.338;8.810;2022-08-03T06:31:23;5.33;;;3.60;;
20437;SDS011;17436;50.338;8.810;2022-08-03T06:33:55;5.73;;;2.93;;
20437;SDS011;17436;50.338;8.810;2022-08-03T06:36:21;6.23;;;3.00;;
20437;SDS011;17436;50.338;8.810;2022-08-03T06:38:49;5.87;;;3.40;;
20437;SDS011;17436;50.338;8.810;2022-08-03T06:41:16;6.50;;;3.40;;
20437;SDS011;17436;50.338;8.810;2022-08-03T06:43:44;7.43;;;3.77;;
20437;SDS011;17436;50.338;8.810;2022-08-03T06:46:10;4.60;;;3.60;;
20437;SDS011;17436;50.338;8.810;2022-08-03T06:48:37;7.37;;;4.00;;
20437;SDS011;17436;50.338;8.810;2022-08-03T06:51:05;5.80;;;4.00;;
20437;SDS011;17436;50.338;8.810;2022-08-03T06:53:32;7.50;;;3.93;;
20437;SDS011;17436;50.338;8.810;2022-08-03T06:55:59;5.63;;;3.83;;
20437;SDS011;17436;50.338;8.810;2022-08-03T06:58:26;7.03;;;4.17;;
20437;SDS011;17436;50.338;8.810;2022-08-03T07:00:52;7.30;;;3.83;;
20437;SDS011;17436;50.338;8.810;2022-08-03T07:03:19;7.07;;;4.00;;
20437;SDS011;17436;50.338;8.810;2022-08-03T07:05:46;6.43;;;4.10;;
20437;SDS011;17436;50.338;8.810;2022-08-03T07:08:14;6.07;;;3.93;;
20437;SDS011;17436;50.338;8.810;2022-08-03T07:10:41;5.57;;;4.30;;
20437;SDS011;17436;50.338;8.810;2022-08-03T07:13:08;8.47;;;4.40;;
20437;SDS011;17436;50.338;8.810;2022-08-03T07:15:35;6.90;;;3.60;;
20437;SDS011;17436;50.338;8.810;2022-08-03T07:18:02;5.63;;;3.53;;
20437;SDS011;17436;50.338;8.810;2022-08-03T07:20:30;6.33;;;3.60;;
20437;SDS011;17436;50.338;8.810;2022-08-03T07:22:57;4.77;;;3.50;;
20437;SDS011;17436;50.338;8.810;2022-08-03T07:25:26;10.20;;;3.73;;
20437;SDS011;17436;50.338;8.810;2022-08-03T07:27:54;4.67;;;3.40;;
20437;SDS011;17436;50.338;8.810;2022-08-03T07:30:21;5.53;;;3.63;;
20437;SDS011;17436;50.338;8.810;2022-08-03T07:32:47;5.33;;;3.50;;
20437;SDS011;17436;50.338;8.810;2022-08-03T07:35:14;7.10;;;3.40;;
20437;SDS011;17436;50.338;8.810;2022-08-03T07:37:42;7.40;;;3.53;;
20437;SDS011;17436;50.338;8.810;2022-08-03T07:40:09;4.50;;;3.30;;
20437;SDS011;17436;50.338;8.810;2022-08-03T07:42:37;10.50;;;3.60;;
20437;SDS011;17436;50.338;8.810;2022-08-03T07:45:05;6.43;;;3.43;;
20437;SDS011;17436;50.338;8.810;2022-08-03T07:47:33;5.90;;;3.37;;
20437;SDS011;17436;50.338;8.810;2022-08-03T07:50:07;7.47;;;3.30;;
20437;SDS011;17436;50.338;8.810;2022-08-03T07:52:34;7.07;;;3.15;;
20437;SDS011;17436;50.338;8.810;2022-08-03T07:55:13;6.73;;;3.30;;
20437;SDS011;17436;50.338;8.810;2022-08-03T07:57:42;3.80;;;3.00;;
20437;SDS011;17436;50.338;8.810;2022-08-03T08:00:12;7.97;;;3.10;;
20437;SDS011;17436;50.338;8.810;2022-08-03T08:02:40;7.32;;;3.58;;
20437;SDS011;17436;50.338;8.810;2022-08-03T08:05:08;8.68;;;2.72;;
20437;SDS011;17436;50.338;8.810;2022-08-03T08:07:36;4.03;;;2.75;;
20437;SDS011;17436;50.338;8.810;2022-08-03T08:10:03;5.32;;;3.42;;
20437;SDS011;17436;50.338;8.810;2022-08-03T08:12:31;4.78;;;3.00;;
20437;SDS011;17436;50.338;8.810;2022-08-03T08:14:59;5.22;;;3.38;;
20437;SDS011;17436;50.338;8.810;2022-08-03T08:17:25;6.60;;;3.20;;
20437;SDS011;17436;50.338;8.810;2022-08-03T08:19:52;6.75;;;3.30;;
20437;SDS011;17436;50.338;8.810;2022-08-03T08:22:20;3.10;;;2.60;;
20437;SDS011;17436;50.338;8.810;2022-08-03T08:24:54;4.22;;;2.83;;
20437;SDS011;17436;50.338;8.810;2022-08-03T08:27:21;2.53;;;2.10;;
20437;SDS011;17436;50.338;8.810;2022-08-03T08:29:48;4.93;;;2.50;;
20437;SDS011;17436;50.338;8.810;2022-08-03T08:32:16;5.78;;;2.30;;
20437;SDS011;17436;50.338;8.810;2022-08-03T08:34:43;6.05;;;2.20;;
20437;SDS011;17436;50.338;8.810;2022-08-03T08:37:10;4.93;;;2.50;;
20437;SDS011;17436;50.338;8.810;2022-08-03T08:39:36;4.30;;;2.55;;
20437;SDS011;17436;50.338;8.810;2022-08-03T08:42:03;5.70;;;2.28;;
20437;SDS011;17436;50.338;8.810;2022-08-03T08:44:30;3.72;;;2.38;;
20437;SDS011;17436;50.338;8.810;2022-08-03T08:49:51;5.85;;;2.33;;
20437;SDS011;17436;50.338;8.810;2022-08-03T08:52:23;2.35;;;1.88;;
20437;SDS011;17436;50.338;8.810;2022-08-03T08:54:52;2.50;;;1.98;;
20437;SDS011;17436;50.338;8.810;2022-08-03T08:57:22;5.32;;;2.10;;
20437;SDS011;17436;50.338;8.810;2022-08-03T08:59:54;3.95;;;1.63;;
20437;SDS011;17436;50.338;8.810;2022-08-03T09:02:21;3.20;;;1.60;;
20437;SDS011;17436;50.338;8.810;2022-08-03T09:04:50;2.55;;;1.70;;
20437;SDS011;17436;50.338;8.810;2022-08-03T09:07:18;4.45;;;1.70;;
20437;SDS011;17436;50.338;8.810;2022-08-03T09:09:44;3.58;;;1.98;;
20437;SDS011;17436;50.338;8.810;2022-08-03T09:12:11;3.10;;;1.73;;
20437;SDS011;17436;50.338;8.810;2022-08-03T09:14:40;2.78;;;1.48;;
20437;SDS011;17436;50.338;8.810;2022-08-03T09:17:07;3.45;;;1.70;;
20437;SDS011;17436;50.338;8.810;2022-08-03T09:19:35;3.15;;;1.70;;
20437;SDS011;17436;50.338;8.810;2022-08-03T09:22:06;3.15;;;1.98;;
20437;SDS011;17436;50.338;8.810;2022-08-03T09:24:34;1.58;;;1.40;;
20437;SDS011;17436;50.338;8.810;2022-08-03T09:27:03;3.95;;;1.90;;
20437;SDS011;17436;50.338;8.810;2022-08-03T09:29:31;2.25;;;1.50;;
20437;SDS011;17436;50.338;8.810;2022-08-03T09:31:59;5.03;;;1.67;;
20437;SDS011;17436;50.338;8.810;2022-08-03T09:34:27;2.22;;;1.52;;
20437;SDS011;17436;50.338;8.810;2022-08-03T09:36:55;3.13;;;1.40;;
20437;SDS011;17436;50.338;8.810;2022-08-03T09:39:23;4.72;;;1.52;;
20437;SDS011;17436;50.338;8.810;2022-08-03T09:42:03;2.78;;;1.45;;
20437;SDS011;17436;50.338;8.810;2022-08-03T09:44:33;3.83;;;1.55;;
20437;SDS011;17436;50.338;8.810;2022-08-03T09:47:00;6.28;;;1.67;;
20437;SDS011;17436;50.338;8.810;2022-08-03T09:49:27;3.90;;;1.60;;
20437;SDS011;17436;50.338;8.810;2022-08-03T09:51:55;3.25;;;1.58;;
20437;SDS011;17436;50.338;8.810;2022-08-03T09:54:30;3.67;;;1.50;;
20437;SDS011;17436;50.338;8.810;2022-08-03T09:56:58;1.85;;;1.55;;
20437;SDS011;17436;50.338;8.810;2022-08-03T09:59:26;2.20;;;1.50;;
20437;SDS011;17436;50.338;8.810;2022-08-03T10:01:54;4.28;;;1.80;;
20437;SDS011;17436;50.338;8.810;2022-08-03T10:04:23;1.67;;;1.48;;
20437;SDS011;17436;50.338;8.810;2022-08-03T10:07:02;1.83;;;1.30;;
20437;SDS011;17436;50.338;8.810;2022-08-03T10:09:31;2.30;;;1.33;;
20437;SDS011;17436;50.338;8.810;2022-08-03T10:12:05;2.13;;;1.60;;
20437;SDS011;17436;50.338;8.810;2022-08-03T10:14:35;3.13;;;1.58;;
20437;SDS011;17436;50.338;8.810;2022-08-03T10:17:02;3.03;;;1.40;;
20437;SDS011;17436;50.338;8.810;2022-08-03T10:19:30;4.72;;;1.50;;
20437;SDS011;17436;50.338;8.810;2022-08-03T10:22:00;3.08;;;1.30;;
20437;SDS011;17436;50.338;8.810;2022-08-03T10:24:33;2.63;;;1.45;;
20437;SDS011;17436;50.338;8.810;2022-08-03T10:27:01;2.20;;;1.30;;
20437;SDS011;17436;50.338;8.810;2022-08-03T10:29:32;6.18;;;1.50;;
20437;SDS011;17436;50.338;8.810;2022-08-03T10:32:03;2.20;;;1.30;;
20437;SDS011;17436;50.338;8.810;2022-08-03T10:34:35;4.55;;;1.50;;
20437;SDS011;17436;50.338;8.810;2022-08-03T10:37:09;2.60;;;1.23;;
20437;SDS011;17436;50.338;8.810;2022-08-03T10:39:36;4.00;;;1.50;;
20437;SDS011;17436;50.338;8.810;2022-08-03T10:42:18;1.58;;;1.30;;
20437;SDS011;17436;50.338;8.810;2022-08-03T10:44:49;1.55;;;1.30;;
20437;SDS011;17436;50.338;8.810;2022-08-03T10:47:21;3.88;;;1.60;;
20437;SDS011;17436;50.338;8.810;2022-08-03T10:49:47;2.15;;;1.33;;
20437;SDS011;17436;50.338;8.810;2022-08-03T10:52:17;2.55;;;1.48;;
20437;SDS011;17436;50.338;8.810;2022-08-03T10:54:45;1.75;;;1.40;;
20437;SDS011;17436;50.338;8.810;2022-08-03T10:57:45;5.03;;;1.55;;
20437;SDS011;17436;50.338;8.810;2022-08-03T11:00:14;1.83;;;1.30;;
20437;SDS011;17436;50.338;8.810;2022-08-03T11:03:01;3.05;;;1.40;;
20437;SDS011;17436;50.338;8.810;2022-08-03T11:05:30;3.10;;;1.48;;
20437;SDS011;17436;50.338;8.810;2022-08-03T11:08:19;4.20;;;1.30;;
20437;SDS011;17436;50.338;8.810;2022-08-03T11:10:57;2.28;;;1.30;;
20437;SDS011;17436;50.338;8.810;2022-08-03T11:13:25;1.65;;;1.40;;
20437;SDS011;17436;50.338;8.810;2022-08-03T11:15:57;4.32;;;1.60;;
20437;SDS011;17436;50.338;8.810;2022-08-03T11:18:26;1.73;;;1.38;;
20437;SDS011;17436;50.338;8.810;2022-08-03T11:20:54;4.93;;;1.50;;
20437;SDS011;17436;50.338;8.810;2022-08-03T11:26:13;2.42;;;1.30;;
20437;SDS011;17436;50.338;8.810;2022-08-03T11:28:41;1.90;;;1.23;;
20437;SDS011;17436;50.338;8.810;2022-08-03T11:34:21;1.90;;;1.63;;
20437;SDS011;17436;50.338;8.810;2022-08-03T11:39:48;1.88;;;1.40;;
20437;SDS011;17436;50.338;8.810;2022-08-03T11:42:37;4.28;;;1.45;;
20437;SDS011;17436;50.338;8.810;2022-08-03T11:45:12;2.75;;;1.45;;
20437;SDS011;17436;50.338;8.810;2022-08-03T11:47:40;2.05;;;1.40;;
20437;SDS011;17436;50.338;8.810;2022-08-03T11:50:08;4.00;;;1.63;;
20437;SDS011;17436;50.338;8.810;2022-08-03T11:52:37;1.35;;;1.23;;
20437;SDS011;17436;50.338;8.810;2022-08-03T11:55:10;2.55;;;1.27;;
20437;SDS011;17436;50.338;8.810;2022-08-03T11:57:40;3.25;;;1.50;;
20437;SDS011;17436;50.338;8.810;2022-08-03T12:00:20;3.50;;;1.30;;
20437;SDS011;17436;50.338;8.810;2022-08-03T12:02:54;2.88;;;1.55;;
20437;SDS011;17436;50.338;8.810;2022-08-03T12:05:31;3.30;;;1.20;;
20437;SDS011;17436;50.338;8.810;2022-08-03T12:08:03;1.80;;;1.23;;
20437;SDS011;17436;50.338;8.810;2022-08-03T12:10:31;1.73;;;1.20;;
20437;SDS011;17436;50.338;8.810;2022-08-03T12:12:59;4.03;;;1.33;;
20437;SDS011;17436;50.338;8.810;2022-08-03T12:15:27;2.65;;;1.50;;
20437;SDS011;17436;50.338;8.810;2022-08-03T12:17:55;2.97;;;1.40;;
20437;SDS011;17436;50.338;8.810;2022-08-03T12:20:23;3.08;;;1.60;;
20437;SDS011;17436;50.338;8.810;2022-08-03T12:22:50;3.25;;;1.40;;
20437;SDS011;17436;50.338;8.810;2022-08-03T12:25:21;3.70;;;1.48;;
20437;SDS011;17436;50.338;8.810;2022-08-03T12:27:52;3.20;;;1.50;;
20437;SDS011;17436;50.338;8.810;2022-08-03T12:30:19;1.95;;;1.30;;
20437;SDS011;17436;50.338;8.810;2022-08-03T12:32:45;1.70;;;1.50;;
20437;SDS011;17436;50.338;8.810;2022-08-03T12:35:20;2.95;;;1.30;;
20437;SDS011;17436;50.338;8.810;2022-08-03T12:37:48;3.78;;;1.60;;
20437;SDS011;17436;50.338;8.810;2022-08-03T12:40:15;1.48;;;1.38;;
20437;SDS011;17436;50.338;8.810;2022-08-03T12:42:52;2.85;;;1.50;;
20437;SDS011;17436;50.338;8.810;2022-08-03T12:45:20;2.30;;;1.33;;
20437;SDS011;17436;50.338;8.810;2022-08-03T12:47:50;5.22;;;1.60;;
20437;SDS011;17436;50.338;8.810;2022-08-03T12:50:28;3.30;;;1.50;;
20437;SDS011;17436;50.338;8.810;2022-08-03T12:52:56;3.47;;;1.55;;
20437;SDS011;17436;50.338;8.810;2022-08-03T12:55:24;1.73;;;1.35;;
20437;SDS011;17436;50.338;8.810;2022-08-03T12:57:58;3.30;;;1.60;;
20437;SDS011;17436;50.338;8.810;2022-08-03T13:00:25;1.55;;;1.23;;
20437;SDS011;17436;50.338;8.810;2022-08-03T13:02:57;3.78;;;1.40;;
20437;SDS011;17436;50.338;8.810;2022-08-03T13:05:27;4.82;;;1.52;;
20437;SDS011;17436;50.338;8.810;2022-08-03T13:07:54;4.25;;;1.60;;
20437;SDS011;17436;50.338;8.810;2022-08-03T13:10:28;3.63;;;1.20;;
20437;SDS011;17436;50.338;8.810;2022-08-03T13:12:56;1.98;;;1.40;;
20437;SDS011;17436;50.338;8.810;2022-08-03T13:15:27;3.50;;;1.60;;
20437;SDS011;17436;50.338;8.810;2022-08-03T13:17:55;2.35;;;1.50;;
20437;SDS011;17436;50.338;8.810;2022-08-03T13:20:22;3.72;;;1.35;;
20437;SDS011;17436;50.338;8.810;2022-08-03T13:22:49;2.67;;;1.50;;
20437;SDS011;17436;50.338;8.810;2022-08-03T13:25:16;1.90;;;1.50;;
20437;SDS011;17436;50.338;8.810;2022-08-03T13:27:44;3.15;;;1.40;;
20437;SDS011;17436;50.338;8.810;2022-08-03T13:30:13;4.68;;;1.50;;
20437;SDS011;17436;50.338;8.810;2022-08-03T13:32:40;5.00;;;1.70;;
20437;SDS011;17436;50.338;8.810;2022-08-03T13:35:07;7.15;;;1.70;;
20437;SDS011;17436;50.338;8.810;2022-08-03T13:37:35;1.60;;;1.30;;
20437;SDS011;17436;50.338;8.810;2022-08-03T13:40:03;2.30;;;1.30;;
20437;SDS011;17436;50.338;8.810;2022-08-03T13:42:32;3.20;;;1.23;;
20437;SDS011;17436;50.338;8.810;2022-08-03T13:45:00;2.78;;;1.35;;
20437;SDS011;17436;50.338;8.810;2022-08-03T13:47:28;2.65;;;1.30;;
20437;SDS011;17436;50.338;8.810;2022-08-03T13:49:55;3.33;;;1.50;;
20437;SDS011;17436;50.338;8.810;2022-08-03T13:52:22;3.17;;;1.30;;
20437;SDS011;17436;50.338;8.810;2022-08-03T13:54:48;4.18;;;1.35;;
20437;SDS011;17436;50.338;8.810;2022-08-03T13:57:16;6.20;;;1.55;;
20437;SDS011;17436;50.338;8.810;2022-08-03T13:59:43;3.80;;;1.63;;
20437;SDS011;17436;50.338;8.810;2022-08-03T14:02:10;4.82;;;1.30;;
20437;SDS011;17436;50.338;8.810;2022-08-03T14:04:38;2.65;;;1.52;;
20437;SDS011;17436;50.338;8.810;2022-08-03T14:07:04;3.25;;;1.50;;
20437;SDS011;17436;50.338;8.810;2022-08-03T14:09:31;3.13;;;1.70;;
20437;SDS011;17436;50.338;8.810;2022-08-03T14:11:59;2.13;;;1.50;;
20437;SDS011;17436;50.338;8.810;2022-08-03T14:14:25;2.47;;;1.40;;
20437;SDS011;17436;50.338;8.810;2022-08-03T14:16:52;3.13;;;1.40;;
20437;SDS011;17436;50.338;8.810;2022-08-03T14:19:19;1.83;;;1.50;;
20437;SDS011;17436;50.338;8.810;2022-08-03T14:21:49;2.80;;;1.30;;
20437;SDS011;17436;50.338;8.810;2022-08-03T14:24:16;1.98;;;1.33;;
20437;SDS011;17436;50.338;8.810;2022-08-03T14:26:42;2.20;;;1.30;;
20437;SDS011;17436;50.338;8.810;2022-08-03T14:29:09;9.48;;;5.70;;
20437;SDS011;17436;50.338;8.810;2022-08-03T14:31:36;11.10;;;9.05;;
20437;SDS011;17436;50.338;8.810;2022-08-03T14:34:03;4.38;;;1.80;;
20437;SDS011;17436;50.338;8.810;2022-08-03T14:36:32;1.90;;;1.50;;
20437;SDS011;17436;50.338;8.810;2022-08-03T14:39:00;2.22;;;1.40;;
20437;SDS011;17436;50.338;8.810;2022-08-03T14:41:27;2.25;;;1.60;;
20437;SDS011;17436;50.338;8.810;2022-08-03T14:43:54;2.63;;;1.60;;
20437;SDS011;17436;50.338;8.810;2022-08-03T14:46:21;3.53;;;1.67;;
20437;SDS011;17436;50.338;8.810;2022-08-03T14:48:48;4.00;;;1.48;;
20437;SDS011;17436;50.338;8.810;2022-08-03T14:51:15;2.72;;;1.42;;
20437;SDS011;17436;50.338;8.810;2022-08-03T14:53:43;9.23;;;2.15;;
20437;SDS011;17436;50.338;8.810;2022-08-03T14:56:11;10.95;;;2.58;;
20437;SDS011;17436;50.338;8.810;2022-08-03T14:58:38;1.55;;;1.40;;
20437;SDS011;17436;50.338;8.810;2022-08-03T15:01:05;1.85;;;1.73;;
20437;SDS011;17436;50.338;8.810;2022-08-03T15:03:32;1.92;;;1.40;;
20437;SDS011;17436;50.338;8.810;2022-08-03T15:05:59;2.75;;;1.50;;
20437;SDS011;17436;50.338;8.810;2022-08-03T15:08:26;1.30;;;1.20;;
20437;SDS011;17436;50.338;8.810;2022-08-03T15:10:52;4.18;;;1.60;;